Time;durP1;ratioP1;P1;durP2;ratioP2;P2;SDS_P1;SDS_P2;PMS_P1;PMS_P2;Temp;Humidity;BMP_temperature;BMP_pressure;BME280_temperature;BME280_humidity;BME280_pressure;Samples;Min_cycle;Max_cycle;Signal;HPM_P1;HPM_P2
2023/06/14 00:01:35;;;;;;;;;14.75;13.25;;;;;25.22;38.57;100696.28;6309074;22;45244;-62
2023/06/14 00:04:01;;;;;;;;;18.00;18.00;;;;;25.14;38.58;100686.97;6281320;22;45375;-62
2023/06/14 00:06:28;;;;;;;;;16.50;15.50;;;;;25.23;38.67;100701.59;6308336;22;45405;-62
2023/06/14 00:08:54;;;;;;;;;20.75;18.25;;;;;25.17;38.42;100701.34;6307611;22;46757;-62
2023/06/14 00:11:19;;;;;;;;;20.25;19.25;;;;;25.09;38.88;100689.28;6280145;22;45363;-62
2023/06/14 00:13:45;;;;;;;;;16.25;16.00;;;;;25.03;38.58;100689.84;6309034;22;45343;-62
2023/06/14 00:16:11;;;;;;;;;16.25;16.25;;;;;25.04;39.60;100694.31;6308328;22;45744;-62
2023/06/14 00:18:36;;;;;;;;;21.00;18.50;;;;;24.99;39.58;100693.00;6308267;22;46129;-62
2023/06/14 00:21:02;;;;;;;;;20.50;19.50;;;;;24.96;39.23;100699.63;6279943;22;45181;-62
2023/06/14 00:23:27;;;;;;;;;18.75;18.25;;;;;25.00;39.17;100708.38;6281182;22;45259;-62
2023/06/14 00:25:52;;;;;;;;;21.50;18.25;;;;;24.97;39.29;100709.53;6308635;22;45232;-62
2023/06/14 00:28:18;;;;;;;;;20.25;19.00;;;;;24.87;39.82;100695.03;6308304;22;46342;-62
2023/06/14 00:30:46;;;;;;;;;18.25;18.25;;;;;24.89;39.66;100704.81;6308081;22;52832;-62
2023/06/14 00:33:11;;;;;;;;;18.25;18.25;;;;;24.89;39.84;100706.66;6280835;22;45357;-62
2023/06/14 00:35:37;;;;;;;;;15.00;15.00;;;;;24.83;39.79;100697.19;6308835;22;45515;-62
2023/06/14 00:38:02;;;;;;;;;17.25;17.25;;;;;24.84;39.92;100714.41;6308383;22;45274;-62
2023/06/14 00:40:27;;;;;;;;;15.75;15.75;;;;;24.80;40.08;100711.09;6280097;22;45302;-62
2023/06/14 00:42:53;;;;;;;;;18.00;18.00;;;;;24.69;39.85;100697.59;6308906;22;45287;-62
2023/06/14 00:45:18;;;;;;;;;17.25;16.25;;;;;24.67;40.35;100696.88;6308137;22;45799;-62
2023/06/14 00:47:46;;;;;;;;;18.25;16.75;;;;;24.66;40.45;100698.75;6308416;22;45888;-62
2023/06/14 00:50:12;;;;;;;;;16.25;15.75;;;;;24.68;40.68;100709.53;6308399;22;45251;-62
2023/06/14 00:52:39;;;;;;;;;17.00;17.00;;;;;24.66;40.35;100709.66;6308884;22;45363;-62
2023/06/14 00:55:05;;;;;;;;;15.75;15.75;;;;;24.53;40.45;100701.72;6280172;22;45452;-62
2023/06/14 00:57:31;;;;;;;;;16.25;15.50;;;;;24.62;40.65;100708.22;6308514;22;45349;-62
2023/06/14 00:59:57;;;;;;;;;16.50;15.50;;;;;24.57;40.80;100707.78;6307911;22;45346;-62
2023/06/14 01:02:24;;;;;;;;;18.00;16.25;;;;;24.36;40.87;100678.72;6281115;22;45414;-62
2023/06/14 01:04:51;;;;;;;;;17.00;16.50;;;;;24.50;40.81;100710.19;6309094;22;45318;-62
2023/06/14 01:07:31;;;;;;;;;16.75;16.75;;;;;24.52;41.31;100719.06;6307618;22;45304;-62
2023/06/14 01:10:20;;;;;;;;;17.75;17.75;;;;;24.46;41.45;100714.19;6307640;22;45545;-62
2023/06/14 01:13:07;;;;;;;;;22.00;20.00;;;;;24.41;41.51;100709.16;6309125;22;45235;-62
2023/06/14 01:15:34;;;;;;;;;16.75;16.50;;;;;24.34;41.38;100702.56;6308487;22;45331;-62
2023/06/14 01:18:02;;;;;;;;;21.25;21.25;;;;;24.30;41.27;100706.53;6308158;22;45918;-62
2023/06/14 01:20:30;;;;;;;;;20.25;18.25;;;;;24.28;41.74;100704.97;6307685;22;45330;-62
2023/06/14 01:22:56;;;;;;;;;19.75;19.75;;;;;24.22;41.55;100717.28;6308470;22;45247;-62
2023/06/14 01:25:22;;;;;;;;;18.50;17.00;;;;;24.19;41.82;100715.72;6308512;22;45189;-62
2023/06/14 01:27:51;;;;;;;;;18.75;18.75;;;;;24.13;41.51;100713.53;6281032;22;45848;-62
2023/06/14 01:30:17;;;;;;;;;21.50;20.25;;;;;24.13;41.84;100713.53;6307989;22;45681;-62
2023/06/14 01:32:43;;;;;;;;;19.50;19.25;;;;;24.03;42.05;100697.13;6281169;22;45392;-62
2023/06/14 01:35:09;;;;;;;;;20.25;19.25;;;;;24.11;41.89;100712.81;6308086;22;45326;-62
2023/06/14 01:37:35;;;;;;;;;21.50;19.25;;;;;24.07;42.45;100708.63;6279571;22;46941;-62
2023/06/14 01:40:04;;;;;;;;;19.75;19.25;;;;;24.14;42.08;100718.00;6280331;22;45562;-62
2023/06/14 01:42:30;;;;;;;;;16.75;15.50;;;;;23.93;42.02;100685.34;6308674;22;45427;-62
2023/06/14 01:44:56;;;;;;;;;20.50;19.75;;;;;24.05;42.40;100705.19;6278952;22;45319;-62
2023/06/14 01:47:22;;;;;;;;;19.00;18.00;;;;;24.01;42.45;100704.59;6307297;22;46284;-62
2023/06/14 01:49:47;;;;;;;;;22.25;20.75;;;;;24.07;42.49;100718.69;6280434;22;45430;-62
2023/06/14 01:52:13;;;;;;;;;21.25;19.50;;;;;24.01;42.81;100714.66;6280551;22;45360;-62
2023/06/14 01:54:41;;;;;;;;;18.25;17.00;;;;;23.99;42.73;100725.69;6308190;22;45545;-62
2023/06/14 01:57:08;;;;;;;;;19.00;18.50;;;;;23.89;42.90;100711.16;6307567;22;46332;-62
2023/06/14 01:59:34;;;;;;;;;18.00;17.00;;;;;23.93;42.89;100720.78;6253805;22;45276;-62
2023/06/14 02:02:01;;;;;;;;;14.25;14.25;;;;;23.92;43.16;100720.91;6308414;22;45395;-62
2023/06/14 02:04:26;;;;;;;;;16.00;16.00;;;;;23.89;43.07;100722.06;6279452;22;45754;-62
2023/06/14 02:06:52;;;;;;;;;17.00;16.50;;;;;23.89;43.00;100726.63;6307873;22;45521;-62
2023/06/14 02:09:17;;;;;;;;;18.75;18.75;;;;;23.84;42.89;100714.28;6307504;22;45332;-62
2023/06/14 02:11:43;;;;;;;;;14.25;13.25;;;;;23.86;43.46;100719.59;6308644;22;45326;-62
2023/06/14 02:14:10;;;;;;;;;15.00;15.00;;;;;23.86;42.89;100727.78;6279381;22;45619;-62
2023/06/14 02:16:36;;;;;;;;;22.00;18.50;;;;;23.82;43.21;100718.13;6279642;22;47874;-62
2023/06/14 02:19:01;;;;;;;;;21.25;19.25;;;;;23.67;43.29;100702.13;6308589;22;45247;-62
2023/06/14 02:21:27;;;;;;;;;18.00;16.75;;;;;23.72;43.36;100717.19;6308691;22;45331;-62
2023/06/14 02:23:52;;;;;;;;;16.00;15.00;;;;;23.76;43.83;100729.56;6307721;22;45427;-62
2023/06/14 02:26:17;;;;;;;;;15.75;15.75;;;;;23.67;43.31;100721.22;6280178;22;46949;-62
2023/06/14 02:28:43;;;;;;;;;15.00;14.00;;;;;23.63;43.58;100725.19;6307523;22;45296;-62
2023/06/14 02:31:08;;;;;;;;;24.25;22.25;;;;;23.64;43.59;100726.91;6279483;22;45259;-62
2023/06/14 02:33:34;;;;;;;;;18.50;18.50;;;;;23.67;43.80;100737.56;6307834;22;45213;-62
2023/06/14 02:35:59;;;;;;;;;18.00;17.75;;;;;23.64;43.17;100735.09;6307534;22;45675;-62
2023/06/14 02:38:25;;;;;;;;;15.50;15.50;;;;;23.57;43.94;100738.47;6307465;22;45394;-62
2023/06/14 02:40:50;;;;;;;;;18.00;17.25;;;;;23.44;43.91;100712.31;6307010;22;45350;-62
2023/06/14 02:43:17;;;;;;;;;18.75;17.50;;;;;23.53;43.65;100737.88;6306615;22;45378;-62
2023/06/14 02:45:42;;;;;;;;;19.50;18.75;;;;;23.47;43.64;100733.84;6307534;22;45406;-62
2023/06/14 02:48:08;;;;;;;;;14.50;14.50;;;;;23.51;44.00;100737.16;6279814;22;45556;-62
2023/06/14 02:50:33;;;;;;;;;20.50;19.75;;;;;23.51;44.01;100737.16;6308056;22;45496;-62
2023/06/14 02:52:58;;;;;;;;;15.00;13.75;;;;;23.49;43.92;100740.03;6279912;22;45256;-62
2023/06/14 02:55:24;;;;;;;;;16.75;16.75;;;;;23.41;43.74;100736.25;6279735;22;47542;-62
2023/06/14 02:57:49;;;;;;;;;14.25;14.25;;;;;23.38;43.53;100739.22;6278897;22;45296;-62
2023/06/14 03:00:15;;;;;;;;;17.50;16.75;;;;;23.30;43.75;100740.75;6279515;22;45450;-62
2023/06/14 03:02:42;;;;;;;;;15.50;14.25;;;;;23.26;43.70;100744.72;6307731;22;45189;-62
2023/06/14 03:05:08;;;;;;;;;16.50;16.50;;;;;23.29;43.82;100752.66;6307659;22;46463;-62
2023/06/14 03:07:34;;;;;;;;;16.00;15.00;;;;;23.28;43.76;100750.06;6307538;22;45263;-62
2023/06/14 03:09:59;;;;;;;;;14.75;14.75;;;;;23.26;43.96;100746.59;6307961;22;45260;-62
2023/06/14 03:12:25;;;;;;;;;17.25;15.50;;;;;23.06;43.85;100727.38;6307868;22;45366;-62
2023/06/14 03:14:51;;;;;;;;;19.75;18.00;;;;;23.05;43.90;100724.75;6307501;22;46228;-62
2023/06/14 03:17:17;;;;;;;;;19.25;19.25;;;;;23.08;43.57;100735.41;6279552;22;45577;-62
2023/06/14 03:19:43;;;;;;;;;17.50;17.25;;;;;23.17;43.76;100759.16;6279833;22;45345;-62
2023/06/14 03:22:08;;;;;;;;;10.75;10.75;;;;;23.11;44.17;100746.91;6307272;22;45511;-62
2023/06/14 03:24:36;;;;;;;;;16.75;16.75;;;;;23.15;43.82;100766.56;6277812;22;45391;-62
2023/06/14 03:27:02;;;;;;;;;19.00;17.00;;;;;23.11;43.89;100752.34;6254117;22;45224;-62
2023/06/14 03:29:27;;;;;;;;;17.00;15.25;;;;;23.04;43.82;100755.72;6307602;22;45551;-62
2023/06/14 03:31:58;;;;;;;;;18.00;17.25;;;;;23.07;43.85;100771.78;6279173;22;45398;-62
2023/06/14 03:34:23;;;;;;;;;20.25;20.25;;;;;22.97;43.86;100755.38;6306742;22;46374;-62
2023/06/14 03:36:49;;;;;;;;;16.50;16.25;;;;;23.00;43.57;100771.41;6306654;22;45282;-62
2023/06/14 03:39:14;;;;;;;;;18.50;17.50;;;;;22.96;43.74;100774.56;6303963;22;45330;-62
2023/06/14 03:41:40;;;;;;;;;18.00;17.00;;;;;22.86;43.70;100756.25;6278210;22;45319;-62
2023/06/14 03:44:05;;;;;;;;;16.25;16.25;;;;;22.85;43.97;100773.56;6306889;22;58881;-62
2023/06/14 03:46:31;;;;;;;;;16.25;15.50;;;;;22.90;43.49;100784.06;6308803;22;46612;-62
2023/06/14 03:48:57;;;;;;;;;18.00;15.75;;;;;22.84;44.07;100781.88;6308829;22;45292;-62
2023/06/14 03:51:22;;;;;;;;;19.50;18.25;;;;;22.83;44.57;100786.44;6308391;22;45495;-62
2023/06/14 03:53:48;;;;;;;;;15.25;12.75;;;;;22.87;44.62;100790.66;6308516;22;45854;-62
2023/06/14 03:56:13;;;;;;;;;17.25;17.25;;;;;22.84;44.66;100781.88;6309246;22;45220;-62
2023/06/14 03:58:38;;;;;;;;;18.75;16.25;;;;;22.85;44.67;100792.63;6308766;22;45481;-62
2023/06/14 04:01:04;;;;;;;;;16.25;16.25;;;;;22.80;44.88;100783.97;6308903;22;45546;-62
2023/06/14 04:03:29;;;;;;;;;16.75;14.00;;;;;22.84;45.08;100795.50;6280460;22;47619;-62
2023/06/14 04:05:56;;;;;;;;;16.50;16.50;;;;;22.80;44.82;100800.31;6281151;22;45284;-62
2023/06/14 04:08:22;;;;;;;;;16.00;16.00;;;;;22.79;44.76;100792.25;6307920;22;45264;-62
2023/06/14 04:10:47;;;;;;;;;18.50;17.75;;;;;22.67;44.73;100770.56;6279855;22;45476;-62
2023/06/14 04:13:13;;;;;;;;;21.00;19.50;;;;;22.68;45.12;100785.88;6308597;22;46619;-62
2023/06/14 04:15:42;;;;;;;;;16.75;16.25;;;;;22.70;44.92;100789.34;6280554;22;45474;-62
2023/06/14 04:18:07;;;;;;;;;19.75;19.00;;;;;22.65;45.19;100782.53;6280668;22;45436;-62
2023/06/14 04:20:33;;;;;;;;;17.75;16.50;;;;;22.70;45.31;100799.34;6279923;22;45323;-62
2023/06/14 04:23:12;;;;;;;;;19.00;17.00;;;;;22.62;45.70;100791.84;6305678;22;46483;-62
2023/06/14 04:25:37;;;;;;;;;16.50;16.50;;;;;22.64;45.43;100805.31;6308671;22;45475;-62
2023/06/14 04:28:03;;;;;;;;;14.50;14.50;;;;;22.64;45.62;100808.03;6280471;22;45668;-62
2023/06/14 04:30:31;;;;;;;;;14.50;13.50;;;;;22.46;45.18;100785.91;6308158;22;45417;-62
2023/06/14 04:32:56;;;;;;;;;16.25;16.25;;;;;22.45;45.76;100787.75;6306662;22;47151;-62
2023/06/14 04:35:23;;;;;;;;;14.50;14.50;;;;;22.62;45.65;100816.31;6308669;22;45233;-62
2023/06/14 04:37:49;;;;;;;;;18.75;16.75;;;;;22.52;46.16;100808.03;6308423;22;46176;-62
2023/06/14 04:40:14;;;;;;;;;16.75;16.75;;;;;22.60;46.57;100828.31;6280067;22;46033;-62
2023/06/14 04:42:40;;;;;;;;;16.25;16.25;;;;;22.54;46.04;100829.69;6308232;22;45390;-62
2023/06/14 04:45:06;;;;;;;;;20.25;19.25;;;;;22.56;45.91;100827.69;6308386;22;45291;-62
2023/06/14 04:47:34;;;;;;;;;16.00;15.25;;;;;22.54;46.40;100819.66;6308628;22;45406;-62
2023/06/14 04:50:00;;;;;;;;;16.75;16.75;;;;;22.47;46.33;100807.56;6308743;22;45401;-62
2023/06/14 04:52:26;;;;;;;;;17.50;16.50;;;;;22.40;46.31;100806.31;6307693;22;45344;-62
2023/06/14 04:54:52;;;;;;;;;18.00;16.75;;;;;22.50;46.66;100826.34;6280016;22;45311;-62
2023/06/14 04:57:22;;;;;;;;;20.00;20.00;;;;;22.41;46.50;100813.47;6280534;22;45237;-62
2023/06/14 04:59:47;;;;;;;;;15.25;15.00;;;;;22.48;47.00;100833.75;6308237;22;45280;-62
2023/06/14 05:02:13;;;;;;;;;16.25;16.25;;;;;22.37;46.75;100806.56;6308253;22;45418;-62
2023/06/14 05:04:39;;;;;;;;;17.50;17.50;;;;;22.32;46.60;100804.22;6308491;22;45364;-62
2023/06/14 05:07:07;;;;;;;;;16.50;16.25;;;;;22.45;46.50;100825.81;6308137;22;45456;-62
2023/06/14 05:09:33;;;;;;;;;20.25;17.25;;;;;22.45;46.72;100836.72;6254808;22;45389;-62
2023/06/14 05:12:00;;;;;;;;;18.25;16.25;;;;;22.33;45.97;100814.09;6307705;22;45555;-62
2023/06/14 05:14:26;;;;;;;;;16.00;16.00;;;;;22.44;46.49;100836.88;6308209;22;45397;-62
2023/06/14 05:16:51;;;;;;;;;16.25;16.25;;;;;22.43;46.64;100835.97;6308238;22;45314;-62
2023/06/14 05:19:18;;;;;;;;;16.25;14.75;;;;;22.46;46.88;100838.44;6308770;22;45271;-62
2023/06/14 05:21:43;;;;;;;;;21.00;17.75;;;;;22.41;46.52;100831.66;6307781;22;46237;-62
2023/06/14 05:24:09;;;;;;;;;16.25;16.25;;;;;22.45;46.67;100835.84;6308335;22;45411;-62
2023/06/14 05:26:35;;;;;;;;;15.50;15.50;;;;;22.43;46.30;100825.09;6308896;22;45469;-62
2023/06/14 05:29:01;;;;;;;;;17.50;17.50;;;;;22.46;47.00;100837.59;6279953;22;45459;-62
2023/06/14 05:31:27;;;;;;;;;14.25;14.25;;;;;22.39;46.30;100832.66;6280113;22;47133;-62
2023/06/14 05:33:53;;;;;;;;;15.00;14.50;;;;;22.39;46.33;100839.94;6308237;22;45530;-62
2023/06/14 05:36:21;;;;;;;;;15.50;14.50;;;;;22.39;46.38;100835.38;6309013;22;45356;-62
2023/06/14 05:38:46;;;;;;;;;16.25;15.50;;;;;22.46;46.30;100843.03;6307304;22;45728;-63
2023/06/14 05:41:12;;;;;;;;;18.00;18.00;;;;;22.41;46.74;100835.25;6307006;22;45982;-62
2023/06/14 05:43:37;;;;;;;;;16.75;15.50;;;;;22.49;46.31;100842.78;6308595;22;45318;-62
2023/06/14 05:46:03;;;;;;;;;20.25;19.00;;;;;22.44;45.81;100847.75;6308050;22;45445;-62
2023/06/14 05:48:29;;;;;;;;;20.50;19.50;;;;;22.48;45.68;100841.06;6279694;22;45500;-62
2023/06/14 05:50:54;;;;;;;;;15.25;15.25;;;;;22.49;46.19;100850.94;6308074;22;46448;-62
2023/06/14 05:53:19;;;;;;;;;14.00;14.00;;;;;22.46;46.37;100837.59;6280159;22;47686;-62
2023/06/14 05:55:45;;;;;;;;;21.00;21.00;;;;;22.51;46.01;100847.09;6308217;22;45320;-62
2023/06/14 05:58:10;;;;;;;;;18.25;16.25;;;;;22.50;46.23;100845.38;6280259;22;45383;-62
2023/06/14 06:00:36;;;;;;;;;17.50;16.50;;;;;22.48;46.34;100832.88;6308597;22;46253;-67
2023/06/14 06:03:02;;;;;;;;;15.25;15.25;;;;;22.57;46.18;100854.78;6308165;22;45248;-67
2023/06/14 06:05:27;;;;;;;;;18.50;18.25;;;;;22.46;46.52;100827.56;6279177;22;45469;-68
2023/06/14 06:07:52;;;;;;;;;17.00;14.25;;;;;22.62;46.20;100857.13;6307296;22;45488;-68
2023/06/14 06:10:18;;;;;;;;;16.25;15.00;;;;;22.58;46.46;100853.75;6306987;22;46100;-68
2023/06/14 06:12:43;;;;;;;;;17.25;17.25;;;;;22.56;46.43;100841.28;6308047;22;45252;-68
2023/06/14 06:15:11;;;;;;;;;21.00;19.50;;;;;22.39;45.28;100826.34;6308477;22;45366;-68
2023/06/14 06:17:38;;;;;;;;;18.75;18.25;;;;;22.68;45.81;100863.91;6279922;22;45438;-68
2023/06/14 06:20:05;;;;;;;;;16.25;16.25;;;;;22.40;46.08;100817.19;6308073;22;45497;-68
2023/06/14 06:22:31;;;;;;;;;17.75;17.25;;;;;22.54;45.20;100846.84;6307980;22;45599;-68
2023/06/14 06:24:56;;;;;;;;;17.00;16.00;;;;;22.54;45.00;100832.41;6308634;22;45255;-68
2023/06/14 06:27:21;;;;;;;;;18.25;17.00;;;;;22.60;44.46;100850.91;6280151;22;45260;-68
2023/06/14 06:29:48;;;;;;;;;14.50;13.50;;;;;22.58;43.86;100844.75;6306844;22;45255;-69
2023/06/14 06:32:14;;;;;;;;;15.75;15.75;;;;;22.70;42.50;100862.81;6278439;22;45262;-69
2023/06/14 06:34:39;;;;;;;;;14.50;14.50;;;;;22.60;42.61;100840.03;6279850;22;45292;-68
2023/06/14 06:37:06;;;;;;;;;18.50;15.75;;;;;22.64;42.16;100852.41;6307831;22;45479;-67
2023/06/14 06:39:31;;;;;;;;;19.00;18.00;;;;;22.62;41.93;100853.50;6305885;22;45424;-69
2023/06/14 06:41:57;;;;;;;;;14.50;13.75;;;;;22.60;41.14;100841.91;6279832;22;45450;-68
2023/06/14 06:44:25;;;;;;;;;16.25;15.50;;;;;22.70;40.40;100861.91;6308061;22;45350;-70
2023/06/14 06:46:50;;;;;;;;;17.50;14.50;;;;;22.67;40.56;100854.88;6307616;22;45154;-69
2023/06/14 06:49:16;;;;;;;;;17.25;14.00;;;;;22.69;40.60;100857.50;6306727;22;45601;-69
2023/06/14 06:51:42;;;;;;;;;14.00;12.25;;;;;22.86;40.11;100865.13;6307902;22;45257;-69
2023/06/14 06:54:08;;;;;;;;;15.75;13.75;;;;;22.70;40.14;100845.59;6307968;22;45231;-69
2023/06/14 06:56:34;;;;;;;;;17.00;15.50;;;;;22.91;40.18;100875.63;6307806;22;45258;-70
2023/06/14 06:58:59;;;;;;;;;17.75;17.00;;;;;22.75;39.69;100844.25;6306656;22;45946;-69
2023/06/14 07:01:25;;;;;;;;;15.75;12.25;;;;;22.78;39.63;100845.84;6308127;22;45235;-68
2023/06/14 07:03:51;;;;;;;;;15.00;14.25;;;;;22.89;39.55;100855.84;6277401;22;45528;-67
2023/06/14 07:06:18;;;;;;;;;16.25;11.50;;;;;22.91;38.96;100852.00;6306969;22;45461;-67
2023/06/14 07:08:44;;;;;;;;;15.25;13.50;;;;;22.94;39.08;100857.19;6306289;22;45324;-67
2023/06/14 07:11:10;;;;;;;;;18.25;18.25;;;;;23.02;38.37;100870.19;6279175;22;45368;-67
2023/06/14 07:13:35;;;;;;;;;14.75;14.50;;;;;23.24;38.96;100903.81;6306402;22;45209;-67
2023/06/14 07:16:01;;;;;;;;;16.75;15.00;;;;;23.15;38.83;100871.91;6307549;22;45612;-67
2023/06/14 07:18:27;;;;;;;;;14.25;12.50;;;;;23.13;38.35;100872.03;6308224;22;45338;-68
2023/06/14 07:20:53;;;;;;;;;16.50;15.50;;;;;23.39;38.88;100904.38;6279322;22;45562;-67
2023/06/14 07:23:19;;;;;;;;;18.00;16.25;;;;;23.30;38.43;100885.09;6299246;22;45352;-68
2023/06/14 07:25:45;;;;;;;;;16.75;15.00;;;;;23.33;38.81;100885.84;6304651;22;45489;-68
2023/06/14 07:28:11;;;;;;;;;15.50;14.00;;;;;23.54;38.90;100913.09;6307026;22;45394;-68
2023/06/14 07:30:36;;;;;;;;;18.00;14.00;;;;;23.44;38.75;100886.66;6306063;22;45581;-68
2023/06/14 07:33:02;;;;;;;;;12.75;12.25;;;;;23.45;38.70;100876.63;6307361;22;45402;-68
2023/06/14 07:35:28;;;;;;;;;18.00;16.50;;;;;23.55;38.25;100888.47;6305136;22;45797;-68
2023/06/14 07:37:53;;;;;;;;;17.00;15.75;;;;;23.63;38.12;100896.84;6307938;22;45486;-68
2023/06/14 07:40:19;;;;;;;;;16.50;15.00;;;;;23.67;38.51;100898.34;6278155;22;45587;-66
2023/06/14 07:42:44;;;;;;;;;17.75;17.00;;;;;23.82;38.55;100908.94;6279561;22;45398;-66
2023/06/14 07:45:10;;;;;;;;;17.75;16.25;;;;;23.77;37.64;100892.97;6307892;22;45422;-66
2023/06/14 07:47:35;;;;;;;;;19.00;15.50;;;;;23.96;37.65;100916.78;6308457;22;45340;-62
2023/06/14 07:50:00;;;;;;;;;16.00;14.75;;;;;24.08;37.73;100924.91;6307573;22;45295;-62
2023/06/14 07:52:26;;;;;;;;;13.75;13.75;;;;;24.17;37.95;100921.38;6308279;22;45266;-63
2023/06/14 07:54:51;;;;;;;;;16.50;13.75;;;;;24.22;37.76;100927.28;6308033;22;45499;-63
2023/06/14 07:57:17;;;;;;;;;16.00;16.00;;;;;24.31;37.00;100923.78;6308264;22;46085;-62
2023/06/14 07:59:42;;;;;;;;;15.00;15.00;;;;;24.41;37.74;100924.69;6308606;22;45244;-62
2023/06/14 08:02:08;;;;;;;;;16.50;15.75;;;;;24.49;36.83;100925.88;6308868;22;45321;-64
2023/06/14 08:04:33;;;;;;;;;14.75;14.50;;;;;24.39;36.39;100902.13;6308583;22;45323;-68
2023/06/14 08:07:00;;;;;;;;;16.50;15.00;;;;;24.62;36.92;100929.28;6307913;22;46206;-68
2023/06/14 08:09:28;;;;;;;;;16.50;15.25;;;;;24.53;36.40;100905.50;6308362;22;45516;-65
2023/06/14 08:11:53;;;;;;;;;15.00;15.00;;;;;24.68;35.72;100919.69;6280374;22;45408;-66
2023/06/14 08:14:19;;;;;;;;;13.25;13.00;;;;;24.79;36.27;100927.75;6308564;22;45331;-66
2023/06/14 08:16:44;;;;;;;;;14.50;14.50;;;;;24.85;36.35;100921.75;6279194;22;46959;-66
2023/06/14 08:19:10;;;;;;;;;17.25;16.00;;;;;24.71;36.44;100895.72;6280058;22;45368;-66
2023/06/14 08:21:36;;;;;;;;;12.50;12.50;;;;;25.05;36.05;100938.22;6280495;22;45491;-66
2023/06/14 08:24:02;;;;;;;;;13.25;13.25;;;;;25.03;36.06;100924.69;6308324;22;45308;-66
2023/06/14 08:26:31;;;;;;;;;14.75;13.25;;;;;25.13;36.01;100933.78;6308212;22;45311;-63
2023/06/14 08:28:57;;;;;;;;;16.50;14.75;;;;;25.19;35.36;100932.34;6278577;22;45577;-64
2023/06/14 08:31:25;;;;;;;;;14.25;14.25;;;;;25.24;34.99;100938.28;6308543;22;45312;-70
2023/06/14 08:33:51;;;;;;;;;12.50;12.50;;;;;25.19;34.04;100921.41;6279906;22;45529;-65
2023/06/14 08:36:16;;;;;;;;;14.25;14.25;;;;;25.36;33.84;100930.84;6279157;22;47053;-63
2023/06/14 08:38:41;;;;;;;;;11.25;11.25;;;;;25.38;34.19;100920.63;6307722;22;45289;-63
2023/06/14 08:41:10;;;;;;;;;14.75;12.25;;;;;25.51;33.89;100931.31;6279502;22;45341;-63
2023/06/14 08:43:36;;;;;;;;;14.00;13.75;;;;;25.52;33.58;100920.19;6307488;22;45383;-63
2023/06/14 08:46:04;;;;;;;;;12.25;11.00;;;;;25.66;33.90;100927.13;6306733;22;46306;-63
2023/06/14 08:48:33;;;;;;;;;15.25;14.25;;;;;25.77;33.41;100939.78;6307009;22;45371;-63
2023/06/14 08:51:04;;;;;;;;;13.50;13.50;;;;;25.78;32.98;100930.59;6280232;22;45347;-64
2023/06/14 08:53:31;;;;;;;;;16.00;14.50;;;;;25.89;33.54;100940.50;6307276;22;45457;-64
2023/06/14 08:56:01;;;;;;;;;15.00;15.00;;;;;26.01;32.80;100943.97;6279110;22;47101;-64
2023/06/14 08:58:29;;;;;;;;;14.75;13.75;;;;;26.01;32.90;100939.38;6307639;22;45477;-63
2023/06/14 09:00:55;;;;;;;;;12.50;12.50;;;;;26.12;32.21;100945.69;6278561;22;45341;-64
2023/06/14 09:03:22;;;;;;;;;14.00;14.00;;;;;25.98;32.42;100914.19;6306735;22;45256;-64
2023/06/14 09:05:47;;;;;;;;;12.75;12.75;;;;;26.09;31.50;100921.38;6305779;22;45632;-63
2023/06/14 09:08:13;;;;;;;;;15.00;12.75;;;;;26.12;32.39;100924.66;6279346;22;45335;-64
2023/06/14 09:10:40;;;;;;;;;12.00;12.00;;;;;26.26;31.53;100947.97;6307702;22;45385;-64
2023/06/14 09:13:06;;;;;;;;;12.50;12.50;;;;;26.26;30.99;100942.50;6307289;22;45411;-63
2023/06/14 09:15:32;;;;;;;;;9.25;9.00;;;;;26.15;31.40;100923.53;6306151;22;45377;-63
2023/06/14 09:17:57;;;;;;;;;15.25;12.75;;;;;26.28;30.90;100931.41;6306192;22;45311;-63
2023/06/14 09:20:25;;;;;;;;;10.50;10.00;;;;;26.23;30.77;100929.13;6308022;22;45341;-63
2023/06/14 09:22:50;;;;;;;;;10.75;10.00;;;;;26.34;30.79;100942.63;6279929;22;45545;-64
2023/06/14 09:25:16;;;;;;;;;11.25;10.75;;;;;26.39;29.41;100948.50;6307868;22;45457;-64
2023/06/14 09:27:42;;;;;;;;;13.00;12.00;;;;;26.29;29.61;100928.53;6307074;22;45286;-64
2023/06/14 09:30:09;;;;;;;;;12.00;10.75;;;;;26.43;29.90;100941.75;6306825;22;45291;-64
2023/06/14 09:32:39;;;;;;;;;14.75;12.00;;;;;26.46;28.99;100947.94;6279215;22;45350;-64
2023/06/14 09:35:08;;;;;;;;;15.00;12.50;;;;;26.50;28.83;100960.31;6307649;22;46327;-63
2023/06/14 09:37:35;;;;;;;;;11.25;10.50;;;;;26.44;28.70;100943.44;6307264;22;45293;-62
2023/06/14 09:40:00;;;;;;;;;12.25;12.25;;;;;26.46;28.65;100939.72;6307153;22;45242;-63
2023/06/14 09:42:28;;;;;;;;;12.75;9.75;;;;;26.51;28.07;100942.88;6308166;22;45414;-64
2023/06/14 09:44:55;;;;;;;;;10.75;10.75;;;;;26.60;28.88;100952.94;6307772;22;45337;-64
2023/06/14 09:47:21;;;;;;;;;12.25;11.75;;;;;26.64;28.26;100948.06;6308215;22;45430;-64
2023/06/14 09:49:47;;;;;;;;;13.25;12.25;;;;;26.73;27.95;100958.09;6307751;22;45173;-63
2023/06/14 09:52:18;;;;;;;;;13.50;12.75;;;;;26.65;27.75;100936.06;6278355;22;45243;-64
2023/06/14 09:54:48;;;;;;;;;9.75;9.75;;;;;26.56;28.04;100913.16;6306893;22;46057;-64
2023/06/14 09:57:16;;;;;;;;;7.00;7.00;;;;;26.80;28.40;100959.25;6306328;22;45363;-64
2023/06/14 09:59:44;;;;;;;;;11.00;11.00;;;;;26.83;27.45;100960.81;6280031;22;45389;-64
2023/06/14 10:02:18;;;;;;;;;6.75;6.75;;;;;26.71;27.73;100938.22;6279743;22;45469;-64
2023/06/14 10:04:50;;;;;;;;;10.75;10.50;;;;;26.83;27.47;100950.72;6281904;22;46595;-64
2023/06/14 10:07:19;;;;;;;;;12.00;12.00;;;;;26.96;27.34;100961.31;6306511;22;45777;-64
2023/06/14 10:09:49;;;;;;;;;10.25;10.25;;;;;26.98;28.29;100965.66;6306679;22;45294;-64
2023/06/14 10:12:20;;;;;;;;;16.00;13.50;;;;;27.01;27.71;100958.97;6307455;22;45275;-63
2023/06/14 10:14:49;;;;;;;;;14.25;12.75;;;;;27.04;27.06;100955.09;6306049;22;46498;-63
2023/06/14 10:17:24;;;;;;;;;14.00;12.00;;;;;27.17;27.77;100969.28;6304019;22;45582;-63
2023/06/14 10:20:10;;;;;;;;;13.00;11.25;;;;;27.13;27.21;100957.78;6306790;22;45375;-63
2023/06/14 10:22:45;;;;;;;;;12.50;12.25;;;;;27.17;27.39;100961.06;6278831;22;45766;-62
2023/06/14 10:25:30;;;;;;;;;12.50;12.50;;;;;27.15;27.92;100955.75;6304351;22;46214;-63
2023/06/14 10:28:16;;;;;;;;;11.50;11.50;;;;;27.25;27.74;100958.44;6304850;22;45768;-63
2023/06/14 10:31:11;;;;;;;;;16.00;13.75;;;;;27.30;27.68;100958.03;6306115;22;45551;-63
2023/06/14 10:33:47;;;;;;;;;15.50;13.50;;;;;27.35;28.42;100959.28;6301847;22;45633;-63
2023/06/14 10:36:22;;;;;;;;;13.50;13.50;;;;;27.42;27.47;100956.78;6304313;22;45864;-63
2023/06/14 10:39:04;;;;;;;;;17.50;15.00;;;;;27.37;27.11;100950.91;6277565;22;45308;-64
2023/06/14 10:41:30;;;;;;;;;13.25;12.25;;;;;27.40;27.20;100938.75;6278963;22;45308;-66
2023/06/14 10:44:13;;;;;;;;;4.25;4.25;;;;;27.50;27.60;100951.38;6306274;22;45548;-66
2023/06/14 10:46:46;;;;;;;;;14.75;13.75;;;;;27.44;27.18;100934.69;6306647;22;46070;-66
2023/06/14 10:49:11;;;;;;;;;12.50;12.50;;;;;27.43;28.01;100922.00;6306596;22;45451;-66
2023/06/14 10:51:46;;;;;;;;;13.00;12.25;;;;;27.62;27.45;100952.00;6308294;22;45239;-62
2023/06/14 10:54:15;;;;;;;;;15.50;14.00;;;;;27.60;28.23;100944.94;6280847;22;45648;-62
2023/06/14 10:56:48;;;;;;;;;18.00;16.00;;;;;27.62;27.06;100943.78;6308974;22;45701;-62
2023/06/14 10:59:14;;;;;;;;;11.25;11.25;;;;;27.69;26.95;100942.13;6281160;22;45248;-62
2023/06/14 11:02:10;;;;;;;;;15.75;14.75;;;;;27.70;27.02;100940.28;6309660;22;45277;-62
2023/06/14 11:04:52;;;;;;;;;13.25;12.25;;;;;27.71;26.91;100951.06;6309470;22;45267;-62
2023/06/14 11:08:04;;;;;;;;;16.50;14.50;;;;;27.75;27.63;100950.75;6280377;22;47370;-62
2023/06/14 11:10:40;;;;;;;;;13.00;13.00;;;;;27.75;27.06;100948.88;6308661;22;45284;-62